EGHI/SOU METAR and TAF weather

Enter ICAO airport designator
Station Type Date Time Source
EGHI METAR 2019/02/23 20:50 UTC NOAA

EGHI 232050Z 10001KT 9000 NSC 05/04 Q1034


Station Type Date Time Source
EGHI Decoded METAR 2019/02/23 20:50 UTC NOAA

Southampton / Weather Centre, United Kingdom (EGHI) 50-54N 001-24W 0M
Feb 23, 2019 - 03:50 PM EST / 2019.02.23 2050 UTC
Wind: from the E (100 degrees) at 1 MPH (1 KT):0
Visibility: 5 mile(s):0
Temperature: 41 F (5 C)
Dew Point: 39 F (4 C)
Relative Humidity: 93%
Pressure (altimeter): 30.53 in. Hg (1034 hPa)
ob: EGHI 232050Z 10001KT 9000 NSC 05/04 Q1034
cycle: 21

Station Type Date Time Source
EGHI TAF 2016/03/02 12:00 UTC NOAA

TAF EGHI 021104Z 0212/0221 28015G25KT 9999 SCT020
TEMPO 0212/0221 29020G35KT PROB30
TEMPO 0212/0213 4000 SHRA BKN012CB
TEMPO 0218/0221 BKN014


Example: see airport list